Time;durP1;ratioP1;P1;durP2;ratioP2;P2;SDS_P1;SDS_P2;PMS_P1;PMS_P2;Temp;Humidity;BMP_temperature;BMP_pressure;BME280_temperature;BME280_humidity;BME280_pressure;Samples;Min_cycle;Max_cycle;Signal;HPM_P1;HPM_P2
2021/12/03 00:01:09;;;;;;;13.77;9.80;;;6.90;92.40;;;;;;5013406;28;20175;-73
2021/12/03 00:03:35;;;;;;;9.30;7.17;;;6.90;92.50;;;;;;5013234;28;20025;-73
2021/12/03 00:06:02;;;;;;;9.00;4.67;;;6.80;92.50;;;;;;5013127;28;20021;-73
2021/12/03 00:08:28;;;;;;;5.37;4.53;;;6.90;92.60;;;;;;5013286;28;20470;-73
2021/12/03 00:10:57;;;;;;;5.77;4.30;;;6.80;92.60;;;;;;5012970;28;20029;-73
2021/12/03 00:13:24;;;;;;;5.30;4.03;;;6.80;92.50;;;;;;5013385;28;20160;-73
2021/12/03 00:15:51;;;;;;;8.30;6.03;;;6.90;92.50;;;;;;5013164;28;20021;-72
2021/12/03 00:18:17;;;;;;;7.07;5.00;;;6.80;92.50;;;;;;5013299;28;20026;-73
2021/12/03 00:20:43;;;;;;;10.03;6.23;;;6.90;92.50;;;;;;5013207;28;20026;-73
2021/12/03 00:23:09;;;;;;;13.10;7.67;;;6.80;92.40;;;;;;5013111;28;20356;-73
2021/12/03 00:25:36;;;;;;;11.23;7.37;;;6.80;92.40;;;;;;5013048;28;20097;-73
2021/12/03 00:28:03;;;;;;;11.70;6.90;;;6.80;92.50;;;;;;5013073;28;20025;-73
2021/12/03 00:30:30;;;;;;;10.83;7.40;;;6.80;92.50;;;;;;5013188;28;20034;-73
2021/12/03 00:32:55;;;;;;;9.03;6.53;;;6.80;92.50;;;;;;5012833;28;20038;-73
2021/12/03 00:35:21;;;;;;;9.73;6.80;;;6.80;92.50;;;;;;4995299;28;20032;-73
2021/12/03 00:37:50;;;;;;;8.60;6.53;;;6.80;92.50;;;;;;5013159;28;20026;-73
2021/12/03 00:40:20;;;;;;;8.47;6.30;;;6.70;92.40;;;;;;5014370;28;20022;-72
2021/12/03 00:42:45;;;;;;;8.93;6.40;;;6.70;92.60;;;;;;5016784;28;20018;-73
2021/12/03 00:45:12;;;;;;;8.53;6.13;;;6.70;92.70;;;;;;5017279;28;20026;-73
2021/12/03 00:47:41;;;;;;;9.47;6.03;;;6.70;92.80;;;;;;4999289;28;20022;-73
2021/12/03 00:50:09;;;;;;;7.17;5.63;;;6.70;92.80;;;;;;5016624;28;20387;-73
2021/12/03 00:52:35;;;;;;;8.87;5.93;;;6.70;92.80;;;;;;5017045;28;20028;-73
2021/12/03 00:55:01;;;;;;;6.97;5.10;;;6.70;92.80;;;;;;5016784;28;20100;-73
2021/12/03 00:57:27;;;;;;;9.23;5.43;;;6.70;92.80;;;;;;5016470;28;20105;-73
2021/12/03 00:59:52;;;;;;;7.00;5.73;;;6.80;92.80;;;;;;5016299;28;20466;-72
2021/12/03 01:02:18;;;;;;;43.63;30.70;;;6.70;92.80;;;;;;5016692;28;20029;-73
2021/12/03 01:04:46;;;;;;;17.43;13.00;;;6.80;92.80;;;;;;5016578;28;20029;-73
2021/12/03 01:07:13;;;;;;;11.23;9.07;;;6.80;92.60;;;;;;5016095;28;20561;-72
2021/12/03 01:09:39;;;;;;;11.70;9.77;;;6.80;92.50;;;;;;4998515;28;20026;-72
2021/12/03 01:12:05;;;;;;;28.07;22.00;;;6.70;92.60;;;;;;5016199;28;20084;-73
2021/12/03 01:14:31;;;;;;;22.20;18.33;;;6.70;92.70;;;;;;5016466;28;20030;-73
2021/12/03 01:16:57;;;;;;;13.40;10.17;;;6.70;92.70;;;;;;4998649;28;20028;-73
2021/12/03 01:19:24;;;;;;;8.60;5.93;;;6.70;92.80;;;;;;5015929;28;20033;-72
2021/12/03 01:21:50;;;;;;;6.70;4.93;;;6.80;92.60;;;;;;5015734;28;20438;-73
2021/12/03 01:24:16;;;;;;;6.63;4.70;;;6.70;92.30;;;;;;5016246;28;20017;-73
2021/12/03 01:26:43;;;;;;;7.30;5.13;;;6.70;92.40;;;;;;5016197;28;20026;-73
2021/12/03 01:29:10;;;;;;;6.10;5.13;;;6.80;92.20;;;;;;5015744;28;20094;-73
2021/12/03 01:31:35;;;;;;;8.83;5.20;;;6.80;92.10;;;;;;5015790;28;20033;-73
2021/12/03 01:34:01;;;;;;;6.37;5.13;;;6.70;92.20;;;;;;4998316;28;20030;-73
2021/12/03 01:36:27;;;;;;;8.87;4.87;;;6.70;92.40;;;;;;4998274;28;20025;-72
2021/12/03 01:38:53;;;;;;;7.43;5.20;;;6.70;92.40;;;;;;5015691;28;20030;-72
2021/12/03 01:41:18;;;;;;;7.17;5.43;;;6.70;92.40;;;;;;4997999;28;20029;-73
2021/12/03 01:43:44;;;;;;;9.73;5.23;;;6.60;92.40;;;;;;5015710;28;20076;-72
2021/12/03 01:46:12;;;;;;;8.40;5.10;;;6.60;92.50;;;;;;5015628;28;20050;-72
2021/12/03 01:48:39;;;;;;;6.97;4.80;;;6.60;92.50;;;;;;5015570;28;20030;-72
2021/12/03 01:51:07;;;;;;;6.37;5.13;;;6.60;92.50;;;;;;5014772;28;20115;-73
2021/12/03 01:53:36;;;;;;;11.97;5.93;;;6.60;92.70;;;;;;5015333;28;20072;-73
2021/12/03 01:56:10;;;;;;;8.20;5.80;;;6.60;92.70;;;;;;5015342;28;20049;-73
2021/12/03 01:58:37;;;;;;;8.60;5.87;;;6.60;92.70;;;;;;5013581;28;20037;-73
2021/12/03 02:01:07;;;;;;;8.83;5.93;;;6.60;92.70;;;;;;5012407;28;20058;-73
2021/12/03 02:03:35;;;;;;;14.47;6.10;;;6.60;92.80;;;;;;5012177;28;20022;-73
2021/12/03 02:06:03;;;;;;;6.77;5.70;;;6.60;92.80;;;;;;5015028;28;20545;-73
2021/12/03 02:08:30;;;;;;;6.40;5.17;;;6.70;92.70;;;;;;5015169;28;20364;-73
2021/12/03 02:10:56;;;;;;;7.70;5.00;;;6.60;92.70;;;;;;5014877;28;20046;-73
2021/12/03 02:13:22;;;;;;;7.07;5.20;;;6.70;92.70;;;;;;5014639;28;20042;-72
2021/12/03 02:15:48;;;;;;;8.20;5.43;;;6.60;92.60;;;;;;5014767;28;20022;-73
2021/12/03 02:18:15;;;;;;;6.90;5.20;;;6.70;92.70;;;;;;5014670;28;20053;-72
2021/12/03 02:20:49;;;;;;;7.90;5.47;;;6.60;92.60;;;;;;5014681;28;20129;-73
2021/12/03 02:23:16;;;;;;;7.30;5.87;;;6.60;92.40;;;;;;5015072;28;20053;-73
2021/12/03 02:25:43;;;;;;;8.10;6.00;;;6.50;92.60;;;;;;5014694;28;20056;-72
2021/12/03 02:28:13;;;;;;;7.83;5.50;;;6.60;92.70;;;;;;5014422;28;20021;-73
2021/12/03 02:30:39;;;;;;;7.87;5.33;;;6.50;92.80;;;;;;5014572;28;20029;-73
2021/12/03 02:33:05;;;;;;;8.37;5.47;;;6.60;92.70;;;;;;5014573;28;20092;-72
2021/12/03 02:35:31;;;;;;;10.13;6.10;;;6.50;92.60;;;;;;5014567;28;20425;-72
2021/12/03 02:37:57;;;;;;;8.17;6.13;;;6.50;92.70;;;;;;5014794;28;20080;-73
2021/12/03 02:40:24;;;;;;;7.77;5.97;;;6.40;92.60;;;;;;5014320;28;20475;-73
2021/12/03 02:42:51;;;;;;;8.63;6.30;;;6.40;92.70;;;;;;5014174;28;20487;-72
2021/12/03 02:45:18;;;;;;;9.67;6.43;;;6.40;92.80;;;;;;5014345;28;20101;-73
2021/12/03 02:47:44;;;;;;;12.00;6.03;;;6.40;92.90;;;;;;5014627;28;20070;-73
2021/12/03 02:50:13;;;;;;;8.23;6.33;;;6.40;93.80;;;;;;5013853;28;20129;-73
2021/12/03 02:52:40;;;;;;;7.57;6.50;;;6.50;95.40;;;;;;4995836;28;20022;-73
2021/12/03 02:55:07;;;;;;;8.63;6.33;;;6.50;94.80;;;;;;5014160;28;20100;-73
2021/12/03 02:57:33;;;;;;;11.27;6.33;;;6.50;93.60;;;;;;5013628;28;20025;-73
2021/12/03 02:59:59;;;;;;;10.47;6.33;;;6.40;93.30;;;;;;5013470;28;20406;-72
2021/12/03 03:02:25;;;;;;;7.43;5.70;;;6.40;93.20;;;;;;5013275;28;20034;-73
2021/12/03 03:04:52;;;;;;;10.27;6.17;;;6.40;93.10;;;;;;5014229;28;20022;-72
2021/12/03 03:07:18;;;;;;;7.50;5.50;;;6.40;92.90;;;;;;5014219;28;20466;-73
2021/12/03 03:09:45;;;;;;;8.07;5.70;;;6.40;92.90;;;;;;5014019;28;20064;-73
2021/12/03 03:12:15;;;;;;;6.80;5.30;;;6.40;92.90;;;;;;5013905;28;20088;-73
2021/12/03 03:15:09;;;;;;;8.00;6.07;;;6.40;92.90;;;;;;5013992;28;20033;-73
2021/12/03 03:17:35;;;;;;;8.17;5.43;;;6.40;92.90;;;;;;5011786;28;20108;-73
2021/12/03 03:20:02;;;;;;;6.57;5.07;;;6.40;92.90;;;;;;5013815;28;20057;-73
2021/12/03 03:22:28;;;;;;;6.77;5.43;;;6.40;92.90;;;;;;5013583;28;20485;-73
2021/12/03 03:24:59;;;;;;;8.77;5.70;;;6.40;92.90;;;;;;4996067;28;20026;-73
2021/12/03 03:27:26;;;;;;;10.37;5.70;;;6.40;92.80;;;;;;5013914;28;20029;-72
2021/12/03 03:29:53;;;;;;;7.37;5.07;;;6.50;92.80;;;;;;5013572;28;20025;-72
2021/12/03 03:32:20;;;;;;;8.23;5.50;;;6.40;92.70;;;;;;5013859;28;20467;-73
2021/12/03 03:34:46;;;;;;;7.97;5.63;;;6.40;92.70;;;;;;5013686;28;20034;-73
2021/12/03 03:37:12;;;;;;;6.33;4.90;;;6.40;92.70;;;;;;5013516;28;20022;-72
2021/12/03 03:39:38;;;;;;;6.87;5.70;;;6.40;92.60;;;;;;5013523;28;20120;-73
2021/12/03 03:42:05;;;;;;;8.43;5.60;;;6.30;92.60;;;;;;5013464;28;20021;-72
2021/12/03 03:44:31;;;;;;;7.43;5.67;;;6.30;92.70;;;;;;5013695;28;20030;-72
2021/12/03 03:46:57;;;;;;;6.50;5.27;;;6.30;92.60;;;;;;5013591;28;20018;-72
2021/12/03 03:49:24;;;;;;;6.67;5.13;;;6.30;92.60;;;;;;5013583;28;20029;-73
2021/12/03 03:51:51;;;;;;;7.17;5.50;;;6.30;92.60;;;;;;5013262;28;20034;-73
2021/12/03 03:54:18;;;;;;;6.63;5.07;;;6.30;92.60;;;;;;5013121;28;20060;-72
2021/12/03 03:56:44;;;;;;;7.73;5.50;;;6.30;92.60;;;;;;5013282;28;20105;-72
2021/12/03 03:59:10;;;;;;;7.93;5.50;;;6.30;92.60;;;;;;5013382;28;20513;-73
2021/12/03 04:01:36;;;;;;;9.97;6.07;;;6.30;92.70;;;;;;5013011;28;20050;-73
2021/12/03 04:04:02;;;;;;;7.07;5.67;;;6.20;92.80;;;;;;5013530;28;20033;-73
2021/12/03 04:06:28;;;;;;;7.97;5.63;;;6.30;92.90;;;;;;5013000;28;20026;-72
2021/12/03 04:08:54;;;;;;;8.17;5.27;;;6.30;92.80;;;;;;5013351;28;20026;-72
2021/12/03 04:11:22;;;;;;;10.67;5.77;;;6.30;92.80;;;;;;5013199;28;20034;-72
2021/12/03 04:13:49;;;;;;;9.57;5.70;;;6.30;92.90;;;;;;5013277;28;20038;-73
2021/12/03 04:16:15;;;;;;;9.20;5.27;;;6.30;93.00;;;;;;5013072;28;20029;-72
2021/12/03 04:18:41;;;;;;;6.97;5.67;;;6.30;93.00;;;;;;5013176;28;20710;-73
2021/12/03 04:21:07;;;;;;;6.10;4.27;;;6.30;93.00;;;;;;5012961;28;20034;-73
2021/12/03 04:23:33;;;;;;;6.43;4.80;;;6.30;93.00;;;;;;5012852;28;20382;-72
2021/12/03 04:25:59;;;;;;;5.77;4.90;;;6.30;92.90;;;;;;5013247;28;20469;-73
2021/12/03 04:28:25;;;;;;;6.20;4.80;;;6.30;92.90;;;;;;5012955;28;20077;-73
2021/12/03 04:30:51;;;;;;;8.83;4.57;;;6.40;92.80;;;;;;5012958;28;20064;-72
2021/12/03 04:33:18;;;;;;;5.37;4.57;;;6.30;92.60;;;;;;5012936;28;20088;-72
2021/12/03 04:35:43;;;;;;;6.03;4.63;;;6.30;92.50;;;;;;5012963;28;20041;-73
2021/12/03 04:38:09;;;;;;;5.70;4.90;;;6.30;92.50;;;;;;5013304;28;20026;-73
2021/12/03 04:40:36;;;;;;;7.27;4.57;;;6.30;92.50;;;;;;5012916;28;20363;-72
2021/12/03 04:43:03;;;;;;;6.90;4.60;;;6.20;92.60;;;;;;5012866;28;20029;-72
2021/12/03 04:45:30;;;;;;;5.40;4.40;;;6.30;92.50;;;;;;5013169;28;20101;-72
2021/12/03 04:47:58;;;;;;;9.93;5.00;;;6.20;92.30;;;;;;5012959;28;20474;-72
2021/12/03 04:50:27;;;;;;;10.30;5.37;;;6.20;92.40;;;;;;5011464;28;20026;-73
2021/12/03 04:52:53;;;;;;;6.80;4.60;;;6.20;92.40;;;;;;5012280;28;20034;-72
2021/12/03 04:55:20;;;;;;;6.80;5.30;;;6.20;92.50;;;;;;5012740;28;20116;-73
2021/12/03 04:57:46;;;;;;;5.80;4.43;;;6.20;92.50;;;;;;4995354;28;20499;-72
2021/12/03 05:00:17;;;;;;;8.07;5.27;;;6.20;92.40;;;;;;5012551;28;20084;-72
2021/12/03 05:02:43;;;;;;;5.10;4.20;;;6.20;92.50;;;;;;5012580;28;20025;-72
2021/12/03 05:05:09;;;;;;;7.50;4.60;;;6.20;92.40;;;;;;5012494;28;20038;-72
2021/12/03 05:10:05;;;;;;;5.67;3.90;;;6.10;92.20;;;;;;5012852;28;20038;-73
2021/12/03 05:12:31;;;;;;;6.40;4.43;;;6.10;92.30;;;;;;5012643;28;20041;-72
2021/12/03 05:14:57;;;;;;;10.87;5.50;;;6.10;92.30;;;;;;5012587;28;20026;-72
2021/12/03 05:17:23;;;;;;;6.90;4.47;;;6.10;92.20;;;;;;5012750;28;20045;-72
2021/12/03 05:19:49;;;;;;;7.97;4.60;;;6.10;92.20;;;;;;5012568;28;20052;-72
2021/12/03 05:22:16;;;;;;;5.13;4.37;;;6.10;92.10;;;;;;5012807;28;20029;-72
2021/12/03 05:24:45;;;;;;;6.13;4.43;;;6.10;92.00;;;;;;5011013;28;20433;-72
2021/12/03 05:27:16;;;;;;;8.53;4.60;;;6.00;91.90;;;;;;5015339;28;20100;-73
2021/12/03 05:29:43;;;;;;;6.93;4.17;;;6.00;92.00;;;;;;5015910;28;20054;-72
2021/12/03 05:32:09;;;;;;;5.57;4.47;;;5.90;91.90;;;;;;4998389;28;20109;-73
2021/12/03 05:34:36;;;;;;;6.03;4.80;;;5.90;92.20;;;;;;5015885;28;20057;-72
2021/12/03 05:37:02;;;;;;;7.47;5.00;;;5.90;92.30;;;;;;5015987;28;20423;-72
2021/12/03 05:39:27;;;;;;;6.40;4.63;;;5.90;92.20;;;;;;5015832;28;20068;-72
2021/12/03 05:41:53;;;;;;;6.50;5.10;;;5.80;92.30;;;;;;5015783;28;20093;-72
2021/12/03 05:44:19;;;;;;;6.90;4.97;;;5.80;92.40;;;;;;5015665;28;20475;-72
2021/12/03 05:46:45;;;;;;;6.83;5.10;;;5.80;92.50;;;;;;5016021;28;20080;-72
2021/12/03 05:49:11;;;;;;;7.13;5.63;;;5.80;92.60;;;;;;5016069;28;20454;-72
2021/12/03 05:51:37;;;;;;;7.33;6.20;;;5.80;92.60;;;;;;5015338;28;20026;-72
2021/12/03 05:54:03;;;;;;;10.43;5.80;;;5.80;92.70;;;;;;4998047;28;20080;-72
2021/12/03 05:56:29;;;;;;;7.63;5.77;;;5.80;92.70;;;;;;5015586;28;20018;-72
2021/12/03 05:58:55;;;;;;;8.03;6.00;;;5.80;92.60;;;;;;5015424;28;20466;-73
2021/12/03 06:01:21;;;;;;;7.07;5.53;;;5.90;92.70;;;;;;5015254;28;20402;-73
2021/12/03 06:03:47;;;;;;;9.70;5.93;;;5.90;92.70;;;;;;5015142;28;20033;-72
2021/12/03 06:06:14;;;;;;;7.17;6.03;;;5.90;92.70;;;;;;5015775;28;20022;-73
2021/12/03 06:08:40;;;;;;;8.87;6.10;;;5.90;92.70;;;;;;5015336;28;20037;-72
2021/12/03 06:11:06;;;;;;;8.73;5.63;;;5.90;92.60;;;;;;5015474;28;20026;-73
2021/12/03 06:13:32;;;;;;;11.63;5.50;;;5.90;92.70;;;;;;5015176;28;20148;-72
2021/12/03 06:15:57;;;;;;;7.70;5.10;;;5.90;92.70;;;;;;5015311;28;20022;-72
2021/12/03 06:18:23;;;;;;;6.77;5.00;;;5.90;92.70;;;;;;5015424;28;20076;-72
2021/12/03 06:20:49;;;;;;;5.57;4.83;;;6.00;92.60;;;;;;5015168;28;20037;-72
2021/12/03 06:23:15;;;;;;;10.67;4.90;;;6.00;92.60;;;;;;5015227;28;20022;-72
2021/12/03 06:25:41;;;;;;;6.27;4.77;;;5.90;92.60;;;;;;5014825;28;20018;-73
2021/12/03 06:28:07;;;;;;;5.53;4.47;;;6.00;92.60;;;;;;5014753;28;20022;-73
2021/12/03 06:30:33;;;;;;;6.70;5.00;;;6.00;92.70;;;;;;5014729;28;20451;-72
2021/12/03 06:32:59;;;;;;;7.07;5.17;;;6.00;92.60;;;;;;5014778;28;20033;-72
2021/12/03 06:35:24;;;;;;;8.47;5.63;;;6.00;92.60;;;;;;5014614;28;20053;-72
2021/12/03 06:37:51;;;;;;;8.77;5.40;;;6.00;92.70;;;;;;5013278;28;20080;-72
2021/12/03 06:40:21;;;;;;;8.40;5.90;;;6.00;92.70;;;;;;5014934;28;20021;-72
2021/12/03 06:42:47;;;;;;;10.03;5.63;;;6.00;92.70;;;;;;5014665;28;20065;-72
2021/12/03 06:45:13;;;;;;;9.23;5.80;;;6.00;92.70;;;;;;5014743;28;20482;-72
2021/12/03 06:47:40;;;;;;;9.00;5.80;;;6.00;92.70;;;;;;5014353;28;20101;-73
2021/12/03 06:50:09;;;;;;;8.10;5.77;;;6.00;92.70;;;;;;4997002;28;20565;-72
2021/12/03 06:52:37;;;;;;;7.07;5.77;;;6.00;92.80;;;;;;5014635;28;20022;-75
2021/12/03 06:55:04;;;;;;;9.30;6.10;;;6.00;92.80;;;;;;5013271;28;20549;-73
2021/12/03 06:57:30;;;;;;;7.63;5.37;;;6.00;92.80;;;;;;5011818;28;20022;-73
2021/12/03 06:59:56;;;;;;;6.43;5.40;;;6.00;92.80;;;;;;5011419;28;20108;-73
2021/12/03 07:02:22;;;;;;;9.03;5.73;;;6.00;92.80;;;;;;5012857;28;20037;-73
2021/12/03 07:04:48;;;;;;;10.23;6.37;;;6.00;92.80;;;;;;5014419;28;20022;-72
2021/12/03 07:07:14;;;;;;;10.53;6.93;;;6.00;92.90;;;;;;5014390;28;20052;-72
2021/12/03 07:09:41;;;;;;;11.03;7.80;;;6.00;92.90;;;;;;5014124;28;20478;-72
2021/12/03 07:12:08;;;;;;;11.17;8.37;;;6.00;93.00;;;;;;5013919;28;20028;-72
2021/12/03 07:14:34;;;;;;;14.90;9.57;;;6.10;93.00;;;;;;5014190;28;20029;-73
2021/12/03 07:16:59;;;;;;;10.63;8.03;;;6.10;92.90;;;;;;5014489;28;20018;-73
2021/12/03 07:19:25;;;;;;;12.97;8.70;;;6.10;92.90;;;;;;5013718;28;20033;-73
2021/12/03 07:21:51;;;;;;;13.50;7.90;;;6.10;92.90;;;;;;4996278;28;20122;-73
2021/12/03 07:24:17;;;;;;;13.90;6.90;;;6.10;92.90;;;;;;5013533;28;20096;-74
2021/12/03 07:26:42;;;;;;;10.20;7.60;;;6.10;92.80;;;;;;5014124;28;20030;-73
2021/12/03 07:29:08;;;;;;;8.90;7.07;;;6.10;92.80;;;;;;5013668;28;20022;-73
2021/12/03 07:31:34;;;;;;;10.90;6.90;;;6.10;92.70;;;;;;5013984;28;20061;-73
2021/12/03 07:34:00;;;;;;;12.53;6.30;;;6.20;92.80;;;;;;5013881;28;20416;-73
2021/12/03 07:36:26;;;;;;;9.93;6.67;;;6.20;92.90;;;;;;5013828;28;20025;-73
2021/12/03 07:38:52;;;;;;;9.03;6.03;;;6.20;93.00;;;;;;5013867;28;20022;-72
2021/12/03 07:41:17;;;;;;;8.03;5.80;;;6.20;93.00;;;;;;4995945;28;20101;-73
2021/12/03 07:43:44;;;;;;;12.17;5.90;;;6.20;92.90;;;;;;5013845;28;20033;-73
2021/12/03 07:46:10;;;;;;;8.37;5.77;;;6.20;92.90;;;;;;5013657;28;20029;-73
2021/12/03 07:48:37;;;;;;;8.80;6.17;;;6.30;93.00;;;;;;5012973;28;20026;-73
2021/12/03 07:51:03;;;;;;;6.33;5.07;;;6.30;93.20;;;;;;5013538;28;20018;-73
2021/12/03 07:53:28;;;;;;;5.60;4.77;;;6.30;93.20;;;;;;5013264;28;20037;-73
2021/12/03 07:55:55;;;;;;;5.87;4.70;;;6.40;93.20;;;;;;4995618;28;20036;-69
2021/12/03 07:58:21;;;;;;;6.00;4.70;;;6.40;93.20;;;;;;5013289;28;20037;-73
2021/12/03 08:00:47;;;;;;;10.07;4.87;;;6.40;93.10;;;;;;5013062;28;20052;-74
2021/12/03 08:03:13;;;;;;;6.00;4.30;;;6.40;93.20;;;;;;5013157;28;20057;-73
2021/12/03 08:05:39;;;;;;;4.03;2.87;;;6.50;93.20;;;;;;5013316;28;20196;-73
2021/12/03 08:08:06;;;;;;;3.73;2.70;;;6.50;93.00;;;;;;5013179;28;20087;-73
2021/12/03 08:10:35;;;;;;;5.90;3.50;;;6.50;92.90;;;;;;5012888;28;20018;-73
2021/12/03 08:13:01;;;;;;;6.17;4.33;;;6.50;92.80;;;;;;5012770;28;20101;-74
2021/12/03 08:15:26;;;;;;;5.93;3.10;;;6.60;92.50;;;;;;5010037;28;20113;-73
2021/12/03 08:17:52;;;;;;;5.33;3.27;;;6.60;92.30;;;;;;5010580;28;20386;-73
2021/12/03 08:20:18;;;;;;;3.77;2.80;;;6.60;91.90;;;;;;5012955;28;20017;-73
2021/12/03 08:22:44;;;;;;;8.77;3.80;;;6.70;91.60;;;;;;5013603;28;20097;-74
2021/12/03 08:25:11;;;;;;;3.37;2.00;;;6.70;91.50;;;;;;5013078;28;20023;-73
2021/12/03 08:27:37;;;;;;;3.30;1.90;;;6.70;91.40;;;;;;5012699;28;20025;-73
2021/12/03 08:30:05;;;;;;;3.27;1.90;;;6.70;91.30;;;;;;5012855;28;20409;-73
2021/12/03 08:32:31;;;;;;;3.10;1.97;;;6.80;91.20;;;;;;5013239;28;20045;-74
2021/12/03 08:34:57;;;;;;;3.07;1.87;;;6.80;90.90;;;;;;4995221;28;20490;-73
2021/12/03 08:37:22;;;;;;;4.23;1.90;;;6.90;90.70;;;;;;5013122;28;20022;-74
2021/12/03 08:39:48;;;;;;;4.77;2.20;;;6.90;90.50;;;;;;5012528;28;20029;-74
2021/12/03 08:42:15;;;;;;;3.00;2.07;;;6.90;90.60;;;;;;5012811;28;20020;-73
2021/12/03 08:44:41;;;;;;;4.47;2.37;;;7.00;90.60;;;;;;5012787;28;20467;-74
2021/12/03 08:47:07;;;;;;;3.43;2.20;;;7.00;90.80;;;;;;4995441;28;20026;-74
2021/12/03 08:49:49;;;;;;;4.27;1.90;;;7.00;90.70;;;;;;5012688;28;20096;-74
2021/12/03 08:54:56;;;;;;;3.67;2.17;;;7.10;90.80;;;;;;5012683;28;20049;-75
2021/12/03 08:57:30;;;;;;;3.60;2.40;;;7.20;91.00;;;;;;5012976;28;20390;-76
2021/12/03 08:59:59;;;;;;;3.37;2.70;;;7.20;90.90;;;;;;5012561;28;20033;-75
2021/12/03 09:02:24;;;;;;;3.43;2.30;;;7.30;90.70;;;;;;4998411;28;20133;-76
2021/12/03 09:04:50;;;;;;;2.90;1.87;;;7.40;90.70;;;;;;5016431;28;20054;-74
2021/12/03 09:07:16;;;;;;;3.83;1.40;;;7.50;90.50;;;;;;4998873;28;20109;-74
2021/12/03 09:09:43;;;;;;;14.60;3.00;;;7.50;90.00;;;;;;5016529;28;20446;-74
2021/12/03 09:12:09;;;;;;;1.27;1.13;;;7.60;89.30;;;;;;4998991;28;20049;-74
2021/12/03 09:22:51;;;;;;;2.13;1.23;;;7.90;87.10;;;;;;5016747;28;20033;-76
2021/12/03 09:25:23;;;;;;;2.20;1.30;;;8.00;86.10;;;;;;5015970;28;20029;-73
2021/12/03 09:27:50;;;;;;;1.50;0.68;;;8.10;84.20;;;;;;5016058;28;20018;-75
2021/12/03 09:30:16;;;;;;;1.10;0.77;;;8.20;81.60;;;;;;4998015;28;20478;-74
2021/12/03 09:32:47;;;;;;;1.20;0.40;;;8.30;79.10;;;;;;4994982;28;20030;-74
2021/12/03 09:35:13;;;;;;;2.37;0.47;;;8.40;78.00;;;;;;4994683;28;20027;-74
2021/12/03 09:37:39;;;;;;;1.37;0.80;;;8.40;77.50;;;;;;4995836;28;20030;-74
2021/12/03 09:40:08;;;;;;;0.37;0.23;;;8.50;73.90;;;;;;4995779;28;20122;-74
2021/12/03 09:42:37;;;;;;;0.33;0.30;;;8.60;73.30;;;;;;4996299;28;20023;-73
2021/12/03 09:45:07;;;;;;;0.40;0.30;;;8.60;71.80;;;;;;4996311;28;20050;-74
2021/12/03 09:47:33;;;;;;;0.43;0.23;;;8.60;73.00;;;;;;4996250;28;20435;-74
2021/12/03 09:50:01;;;;;;;0.30;0.30;;;8.60;74.70;;;;;;4996309;28;20102;-73
2021/12/03 09:52:35;;;;;;;1.53;0.60;;;8.60;75.70;;;;;;4978612;28;20472;-72
2021/12/03 09:55:08;;;;;;;1.13;0.50;;;8.50;76.00;;;;;;4996080;28;20030;-73
2021/12/03 09:57:38;;;;;;;0.90;0.55;;;8.50;75.90;;;;;;4978479;28;20479;-74
2021/12/03 10:12:10;;;;;;;2.00;0.73;;;8.80;70.90;;;;;;4993381;28;20057;-73
2021/12/03 10:14:49;;;;;;;0.77;0.50;;;8.90;69.30;;;;;;4994987;28;20053;-74
2021/12/03 10:44:04;;;;;;;0.43;0.37;;;9.00;70.70;;;;;;4995348;28;20029;-73
2021/12/03 10:46:46;;;;;;;0.77;0.40;;;9.10;70.40;;;;;;4995126;28;20121;-73
2021/12/03 11:16:37;;;;;;;4.60;0.47;;;9.10;67.60;;;;;;4994205;28;20038;-75
2021/12/03 12:15:37;;;;;;;3.50;0.67;;;9.60;64.00;;;;;;4991800;28;20053;-73
2021/12/03 14:13:57;;;;;;;1.63;0.90;;;8.70;59.80;;;;;;4995970;28;20030;-71
2021/12/03 14:51:28;;;;;;;8.67;3.20;;;8.20;67.90;;;;;;4995027;28;20121;-70
2021/12/03 14:56:40;;;;;;;6.00;2.63;;;8.10;67.30;;;;;;4995154;28;20464;-71
2021/12/03 14:59:25;;;;;;;7.37;2.40;;;8.00;68.20;;;;;;4993975;28;20464;-71
2021/12/03 15:02:08;;;;;;;3.27;2.40;;;8.00;68.50;;;;;;4994558;28;20054;-70
2021/12/03 15:09:47;;;;;;;2.40;1.63;;;7.90;69.20;;;;;;4994614;28;20518;-71
2021/12/03 15:16:06;;;;;;;6.30;1.50;;;7.80;68.20;;;;;;4915584;29;20513;-70
2021/12/03 15:26:14;;;;;;;4.33;1.50;;;7.80;64.50;;;;;;5110834;28;20115;-70
2021/12/03 15:37:25;;;;;;;3.17;1.93;;;7.60;66.00;;;;;;5072565;28;20035;-71
2021/12/03 16:04:13;;;;;;;6.67;3.50;;;7.10;67.20;;;;;;5110370;28;20035;-73
2021/12/03 16:12:05;;;;;;;13.30;7.57;;;7.00;67.80;;;;;;5109797;28;20024;-72
2021/12/03 16:54:13;;;;;;;10.57;6.87;;;6.80;65.70;;;;;;5092816;28;20040;-76
2021/12/03 16:56:45;;;;;;;9.67;6.57;;;6.80;66.10;;;;;;5094258;28;20020;-74
2021/12/03 16:59:11;;;;;;;14.98;8.27;;;6.70;66.30;;;;;;5093976;28;20161;-75
2021/12/03 17:01:57;;;;;;;18.23;9.53;;;6.60;67.00;;;;;;5095179;28;20081;-75
2021/12/03 17:15:13;;;;;;;6.40;4.30;;;6.60;65.90;;;;;;5095351;28;20028;-74
2021/12/03 17:57:55;;;;;;;7.30;4.13;;;6.10;67.70;;;;;;5094035;28;20574;-73
2021/12/03 18:00:39;;;;;;;6.27;4.00;;;6.10;67.90;;;;;;5093829;28;20032;-74
2021/12/03 18:03:14;;;;;;;8.00;4.43;;;6.10;68.60;;;;;;5092989;28;20097;-77
2021/12/03 18:09:08;;;;;;;4.50;3.33;;;6.00;68.20;;;;;;5093660;28;20114;-76
2021/12/03 18:43:34;;;;;;;5.70;4.13;;;5.90;68.70;;;;;;5093229;28;20078;-74
2021/12/03 18:51:20;;;;;;;10.90;3.90;;;5.90;68.20;;;;;;5092602;28;20028;-73
2021/12/03 18:56:32;;;;;;;6.93;4.30;;;5.90;69.30;;;;;;5093314;28;20480;-72
2021/12/03 18:59:02;;;;;;;7.60;4.38;;;5.80;69.40;;;;;;5092943;28;20024;-71
2021/12/03 19:01:28;;;;;;;7.13;4.60;;;5.80;69.20;;;;;;5092921;28;20050;-70
2021/12/03 19:06:35;;;;;;;10.13;6.40;;;5.80;70.10;;;;;;5091816;28;20042;-72
2021/12/03 19:11:32;;;;;;;13.17;7.43;;;5.70;69.70;;;;;;5090028;28;20750;-72
2021/12/03 19:13:58;;;;;;;9.57;6.50;;;5.70;70.30;;;;;;5092126;28;20028;-73
2021/12/03 19:16:25;;;;;;;9.97;7.10;;;5.60;70.30;;;;;;5093139;28;20098;-73
2021/12/03 19:18:54;;;;;;;12.80;8.80;;;5.60;70.10;;;;;;5092898;28;20028;-73
2021/12/03 19:21:24;;;;;;;16.57;10.43;;;5.50;70.90;;;;;;5092837;28;20434;-73
2021/12/03 19:24:01;;;;;;;17.27;10.00;;;5.50;70.60;;;;;;5092672;28;20020;-73
2021/12/03 19:26:29;;;;;;;14.57;9.93;;;5.40;70.90;;;;;;5092666;28;20024;-73
2021/12/03 19:28:56;;;;;;;16.60;10.97;;;5.40;71.70;;;;;;5092611;28;20031;-73
2021/12/03 19:31:24;;;;;;;18.60;12.17;;;5.40;71.90;;;;;;5092586;28;20392;-73
2021/12/03 19:33:51;;;;;;;20.27;12.47;;;5.40;72.60;;;;;;5092705;28;20062;-73
2021/12/03 19:36:22;;;;;;;17.20;12.10;;;5.30;73.00;;;;;;5092891;28;20382;-73
2021/12/03 19:38:51;;;;;;;15.37;11.20;;;5.30;72.80;;;;;;5091718;28;20024;-73
2021/12/03 19:42:06;;;;;;;19.77;11.87;;;5.30;72.10;;;;;;5092223;28;20020;-73
2021/12/03 19:44:10;;;;;;;19.97;12.43;;;5.30;71.30;;;;;;5084731;28;20081;-73
2021/12/03 19:46:39;;;;;;;17.30;11.85;;;5.30;71.50;;;;;;5092363;28;20398;-73
2021/12/03 19:51:48;;;;;;;17.50;11.45;;;5.20;72.00;;;;;;5091632;28;20032;-73
2021/12/03 19:54:16;;;;;;;19.13;11.60;;;5.20;72.30;;;;;;5091521;28;20024;-73
2021/12/03 19:56:42;;;;;;;16.57;11.77;;;5.10;72.00;;;;;;5091760;28;20027;-73
2021/12/03 19:59:09;;;;;;;17.33;10.50;;;5.10;73.10;;;;;;5091612;28;20081;-74
2021/12/03 20:01:36;;;;;;;19.80;11.13;;;5.00;73.10;;;;;;5092176;28;20044;-73
2021/12/03 20:04:04;;;;;;;16.67;10.40;;;5.10;72.90;;;;;;5092475;28;20027;-73
2021/12/03 20:06:31;;;;;;;16.13;10.97;;;5.10;73.00;;;;;;5094260;28;20487;-73
2021/12/03 20:09:02;;;;;;;13.27;8.97;;;5.00;72.90;;;;;;5095276;28;20384;-73
2021/12/03 20:11:39;;;;;;;14.90;10.00;;;5.00;72.00;;;;;;5095878;28;20031;-73
2021/12/03 20:14:07;;;;;;;20.33;13.40;;;4.90;72.80;;;;;;5095584;28;20035;-72
2021/12/03 20:17:10;;;;;;;22.77;15.00;;;4.90;73.30;;;;;;5094939;28;20369;-73
2021/12/03 20:26:57;;;;;;;19.37;12.43;;;4.90;72.40;;;;;;5095924;28;20042;-72
2021/12/03 20:37:45;;;;;;;23.17;12.10;;;4.80;74.30;;;;;;5095590;28;20032;-73
2021/12/03 20:40:16;;;;;;;16.70;11.97;;;4.80;73.90;;;;;;5095295;28;20036;-73
2021/12/03 21:09:33;;;;;;;20.50;12.63;;;4.60;72.50;;;;;;5095143;28;20158;-73
2021/12/03 21:12:02;;;;;;;21.87;12.60;;;4.60;72.60;;;;;;5094938;28;20020;-72
2021/12/03 21:14:31;;;;;;;21.70;12.73;;;4.50;72.80;;;;;;5095180;28;20031;-71
2021/12/03 21:22:17;;;;;;;20.07;11.23;;;4.50;73.50;;;;;;5094873;28;20089;-73
2021/12/03 21:24:42;;;;;;;17.40;10.60;;;4.50;74.00;;;;;;5094201;28;20032;-73
2021/12/03 21:27:14;;;;;;;18.03;10.13;;;4.50;73.60;;;;;;5094512;28;20031;-73
2021/12/03 21:30:03;;;;;;;13.27;8.47;;;4.50;73.50;;;;;;5094798;28;20032;-73
2021/12/03 21:32:44;;;;;;;11.83;7.67;;;4.50;73.50;;;;;;5094169;28;20733;-73
2021/12/03 21:43:22;;;;;;;9.10;5.80;;;4.50;73.10;;;;;;5094578;28;20423;-73
2021/12/03 21:45:50;;;;;;;12.63;6.70;;;4.60;73.10;;;;;;5093311;28;20035;-73
2021/12/03 21:48:16;;;;;;;10.17;6.83;;;4.60;73.00;;;;;;5094511;28;20024;-73
2021/12/03 21:50:42;;;;;;;8.83;6.10;;;4.60;72.50;;;;;;5094357;28;20056;-74
2021/12/03 21:53:08;;;;;;;11.20;6.37;;;4.60;72.70;;;;;;5094233;28;20046;-73
2021/12/03 21:55:39;;;;;;;10.63;6.00;;;4.50;72.90;;;;;;5094305;28;20103;-73
2021/12/03 21:58:06;;;;;;;7.70;5.13;;;4.50;72.80;;;;;;5094489;28;20069;-73